sensor_id;sensor_type;location;lat;lon;timestamp;P1;durP1;ratioP1;P2;durP2;ratioP2
24787;SDS011;12883;52.662;5.196;2023-08-30T00:01:29;3.05;;;3.05;;
24787;SDS011;12883;52.662;5.196;2023-08-30T00:03:54;3.47;;;3.47;;
24787;SDS011;12883;52.662;5.196;2023-08-30T00:06:20;3.45;;;3.45;;
24787;SDS011;12883;52.662;5.196;2023-08-30T00:08:45;2.92;;;2.92;;
24787;SDS011;12883;52.662;5.196;2023-08-30T00:11:10;3.03;;;3.03;;
24787;SDS011;12883;52.662;5.196;2023-08-30T00:13:36;4.10;;;4.10;;
24787;SDS011;12883;52.662;5.196;2023-08-30T00:16:01;3.65;;;3.65;;
24787;SDS011;12883;52.662;5.196;2023-08-30T00:18:27;3.60;;;3.60;;
24787;SDS011;12883;52.662;5.196;2023-08-30T00:20:53;3.63;;;3.63;;
24787;SDS011;12883;52.662;5.196;2023-08-30T00:23:19;3.85;;;3.85;;
24787;SDS011;12883;52.662;5.196;2023-08-30T00:25:44;3.95;;;3.95;;
24787;SDS011;12883;52.662;5.196;2023-08-30T00:28:09;4.30;;;4.30;;
24787;SDS011;12883;52.662;5.196;2023-08-30T00:30:35;3.83;;;3.83;;
24787;SDS011;12883;52.662;5.196;2023-08-30T00:33:00;4.05;;;4.05;;
24787;SDS011;12883;52.662;5.196;2023-08-30T00:35:25;4.07;;;4.07;;
24787;SDS011;12883;52.662;5.196;2023-08-30T00:37:50;4.05;;;4.05;;
24787;SDS011;12883;52.662;5.196;2023-08-30T00:40:16;5.53;;;5.53;;
24787;SDS011;12883;52.662;5.196;2023-08-30T00:42:41;4.68;;;4.68;;
24787;SDS011;12883;52.662;5.196;2023-08-30T00:45:07;5.63;;;5.63;;
24787;SDS011;12883;52.662;5.196;2023-08-30T00:47:33;4.63;;;4.63;;
24787;SDS011;12883;52.662;5.196;2023-08-30T00:49:59;1.90;;;1.90;;
24787;SDS011;12883;52.662;5.196;2023-08-30T00:52:25;1.13;;;1.13;;
24787;SDS011;12883;52.662;5.196;2023-08-30T00:54:50;0.60;;;0.60;;
24787;SDS011;12883;52.662;5.196;2023-08-30T00:57:16;0.65;;;0.65;;
24787;SDS011;12883;52.662;5.196;2023-08-30T00:59:41;4.82;;;4.82;;
24787;SDS011;12883;52.662;5.196;2023-08-30T01:02:07;5.50;;;5.50;;
24787;SDS011;12883;52.662;5.196;2023-08-30T01:04:32;4.88;;;4.88;;
24787;SDS011;12883;52.662;5.196;2023-08-30T01:06:57;5.43;;;5.43;;
24787;SDS011;12883;52.662;5.196;2023-08-30T01:09:23;5.40;;;5.40;;
24787;SDS011;12883;52.662;5.196;2023-08-30T01:17:39;5.35;;;5.35;;
24787;SDS011;12883;52.662;5.196;2023-08-30T01:20:07;5.43;;;5.43;;
24787;SDS011;12883;52.662;5.196;2023-08-30T01:27:58;5.50;;;5.50;;
24787;SDS011;12883;52.662;5.196;2023-08-30T01:30:26;5.90;;;5.90;;
24787;SDS011;12883;52.662;5.196;2023-08-30T01:32:53;5.68;;;5.68;;
24787;SDS011;12883;52.662;5.196;2023-08-30T01:35:20;6.60;;;6.60;;
24787;SDS011;12883;52.662;5.196;2023-08-30T01:37:47;6.10;;;6.10;;
24787;SDS011;12883;52.662;5.196;2023-08-30T01:40:15;7.10;;;7.10;;
24787;SDS011;12883;52.662;5.196;2023-08-30T01:42:42;7.47;;;7.47;;
24787;SDS011;12883;52.662;5.196;2023-08-30T01:45:13;7.88;;;7.88;;
24787;SDS011;12883;52.662;5.196;2023-08-30T01:47:40;6.18;;;6.18;;
24787;SDS011;12883;52.662;5.196;2023-08-30T01:50:08;2.47;;;2.47;;
24787;SDS011;12883;52.662;5.196;2023-08-30T01:52:34;1.42;;;1.42;;
24787;SDS011;12883;52.662;5.196;2023-08-30T01:55:01;0.80;;;0.80;;
24787;SDS011;12883;52.662;5.196;2023-08-30T01:57:27;0.95;;;0.95;;
24787;SDS011;12883;52.662;5.196;2023-08-30T01:59:53;7.10;;;7.10;;
24787;SDS011;12883;52.662;5.196;2023-08-30T02:02:18;7.43;;;7.43;;
24787;SDS011;12883;52.662;5.196;2023-08-30T02:04:44;7.53;;;7.53;;
24787;SDS011;12883;52.662;5.196;2023-08-30T02:07:35;7.40;;;7.40;;
24787;SDS011;12883;52.662;5.196;2023-08-30T02:10:15;7.57;;;7.57;;
24787;SDS011;12883;52.662;5.196;2023-08-30T02:12:47;7.57;;;7.57;;
24787;SDS011;12883;52.662;5.196;2023-08-30T02:15:14;8.02;;;8.02;;
24787;SDS011;12883;52.662;5.196;2023-08-30T02:17:40;7.88;;;7.88;;
24787;SDS011;12883;52.662;5.196;2023-08-30T02:20:06;8.35;;;8.35;;
24787;SDS011;12883;52.662;5.196;2023-08-30T02:22:32;8.07;;;8.07;;
24787;SDS011;12883;52.662;5.196;2023-08-30T02:24:58;8.73;;;8.73;;
24787;SDS011;12883;52.662;5.196;2023-08-30T02:27:24;8.23;;;8.23;;
24787;SDS011;12883;52.662;5.196;2023-08-30T02:29:49;7.88;;;7.88;;
24787;SDS011;12883;52.662;5.196;2023-08-30T02:32:15;8.52;;;8.52;;
24787;SDS011;12883;52.662;5.196;2023-08-30T02:34:45;8.90;;;8.90;;
24787;SDS011;12883;52.662;5.196;2023-08-30T02:37:13;8.85;;;8.85;;
24787;SDS011;12883;52.662;5.196;2023-08-30T02:39:38;9.00;;;9.00;;
24787;SDS011;12883;52.662;5.196;2023-08-30T02:42:03;9.38;;;9.38;;
24787;SDS011;12883;52.662;5.196;2023-08-30T02:44:29;9.95;;;9.95;;
24787;SDS011;12883;52.662;5.196;2023-08-30T02:46:54;8.13;;;8.13;;
24787;SDS011;12883;52.662;5.196;2023-08-30T02:49:19;7.07;;;7.07;;
24787;SDS011;12883;52.662;5.196;2023-08-30T02:51:45;2.53;;;2.53;;
24787;SDS011;12883;52.662;5.196;2023-08-30T02:54:10;0.85;;;0.85;;
24787;SDS011;12883;52.662;5.196;2023-08-30T02:56:37;1.00;;;1.00;;
24787;SDS011;12883;52.662;5.196;2023-08-30T02:59:02;0.80;;;0.80;;
24787;SDS011;12883;52.662;5.196;2023-08-30T03:01:28;8.90;;;8.90;;
24787;SDS011;12883;52.662;5.196;2023-08-30T03:03:53;9.38;;;9.38;;
24787;SDS011;12883;52.662;5.196;2023-08-30T03:06:19;8.93;;;8.93;;
24787;SDS011;12883;52.662;5.196;2023-08-30T03:08:44;9.80;;;9.80;;
24787;SDS011;12883;52.662;5.196;2023-08-30T03:11:10;10.90;;;10.90;;
24787;SDS011;12883;52.662;5.196;2023-08-30T03:13:36;9.80;;;9.80;;
24787;SDS011;12883;52.662;5.196;2023-08-30T03:16:09;10.65;;;10.65;;
24787;SDS011;12883;52.662;5.196;2023-08-30T03:18:37;10.65;;;10.65;;
24787;SDS011;12883;52.662;5.196;2023-08-30T03:21:03;10.98;;;10.98;;
24787;SDS011;12883;52.662;5.196;2023-08-30T03:23:30;10.65;;;10.65;;
24787;SDS011;12883;52.662;5.196;2023-08-30T03:25:56;10.85;;;10.85;;
24787;SDS011;12883;52.662;5.196;2023-08-30T03:28:22;10.77;;;10.77;;
24787;SDS011;12883;52.662;5.196;2023-08-30T03:30:47;10.90;;;10.90;;
24787;SDS011;12883;52.662;5.196;2023-08-30T03:33:13;10.48;;;10.48;;
24787;SDS011;12883;52.662;5.196;2023-08-30T03:35:38;10.30;;;10.30;;
24787;SDS011;12883;52.662;5.196;2023-08-30T03:38:04;11.20;;;11.20;;
24787;SDS011;12883;52.662;5.196;2023-08-30T03:40:29;10.10;;;10.10;;
24787;SDS011;12883;52.662;5.196;2023-08-30T03:42:55;11.48;;;11.48;;
24787;SDS011;12883;52.662;5.196;2023-08-30T03:45:20;10.13;;;10.13;;
24787;SDS011;12883;52.662;5.196;2023-08-30T03:47:46;10.40;;;10.40;;
24787;SDS011;12883;52.662;5.196;2023-08-30T03:50:11;3.00;;;3.00;;
24787;SDS011;12883;52.662;5.196;2023-08-30T03:52:36;2.05;;;2.05;;
24787;SDS011;12883;52.662;5.196;2023-08-30T03:55:02;0.80;;;0.80;;
24787;SDS011;12883;52.662;5.196;2023-08-30T03:57:27;0.82;;;0.82;;
24787;SDS011;12883;52.662;5.196;2023-08-30T03:59:53;11.07;;;11.07;;
24787;SDS011;12883;52.662;5.196;2023-08-30T04:02:18;12.48;;;12.48;;
24787;SDS011;12883;52.662;5.196;2023-08-30T04:04:46;12.82;;;12.82;;
24787;SDS011;12883;52.662;5.196;2023-08-30T04:07:12;12.10;;;12.10;;
24787;SDS011;12883;52.662;5.196;2023-08-30T04:09:38;12.00;;;12.00;;
24787;SDS011;12883;52.662;5.196;2023-08-30T04:12:03;13.25;;;13.25;;
24787;SDS011;12883;52.662;5.196;2023-08-30T04:14:30;13.15;;;13.15;;
24787;SDS011;12883;52.662;5.196;2023-08-30T04:16:55;13.38;;;13.38;;
24787;SDS011;12883;52.662;5.196;2023-08-30T04:19:20;14.02;;;14.02;;
24787;SDS011;12883;52.662;5.196;2023-08-30T04:21:46;13.55;;;13.55;;
24787;SDS011;12883;52.662;5.196;2023-08-30T04:24:11;15.88;;;15.88;;
24787;SDS011;12883;52.662;5.196;2023-08-30T04:26:37;14.57;;;14.57;;
24787;SDS011;12883;52.662;5.196;2023-08-30T04:29:02;15.32;;;15.32;;
24787;SDS011;12883;52.662;5.196;2023-08-30T04:31:28;15.48;;;15.48;;
24787;SDS011;12883;52.662;5.196;2023-08-30T04:33:54;15.30;;;15.30;;
24787;SDS011;12883;52.662;5.196;2023-08-30T04:36:20;15.02;;;15.02;;
24787;SDS011;12883;52.662;5.196;2023-08-30T04:38:46;14.57;;;14.57;;
24787;SDS011;12883;52.662;5.196;2023-08-30T04:41:11;15.43;;;15.32;;
24787;SDS011;12883;52.662;5.196;2023-08-30T04:43:37;14.68;;;14.68;;
24787;SDS011;12883;52.662;5.196;2023-08-30T04:46:02;12.75;;;12.75;;
24787;SDS011;12883;52.662;5.196;2023-08-30T04:48:27;8.98;;;8.98;;
24787;SDS011;12883;52.662;5.196;2023-08-30T04:51:02;5.15;;;5.15;;
24787;SDS011;12883;52.662;5.196;2023-08-30T04:53:29;1.13;;;1.13;;
24787;SDS011;12883;52.662;5.196;2023-08-30T04:55:55;1.23;;;1.23;;
24787;SDS011;12883;52.662;5.196;2023-08-30T04:58:20;1.00;;;1.00;;
24787;SDS011;12883;52.662;5.196;2023-08-30T05:00:46;11.55;;;11.55;;
24787;SDS011;12883;52.662;5.196;2023-08-30T05:03:11;12.85;;;12.85;;
24787;SDS011;12883;52.662;5.196;2023-08-30T05:05:37;11.68;;;11.68;;
24787;SDS011;12883;52.662;5.196;2023-08-30T05:08:02;12.70;;;12.70;;
24787;SDS011;12883;52.662;5.196;2023-08-30T05:10:28;12.40;;;12.40;;
24787;SDS011;12883;52.662;5.196;2023-08-30T05:12:54;11.75;;;11.75;;
24787;SDS011;12883;52.662;5.196;2023-08-30T05:15:19;12.20;;;12.20;;
24787;SDS011;12883;52.662;5.196;2023-08-30T05:17:45;12.27;;;12.27;;
24787;SDS011;12883;52.662;5.196;2023-08-30T05:20:11;11.30;;;11.30;;
24787;SDS011;12883;52.662;5.196;2023-08-30T05:22:36;10.45;;;10.45;;
24787;SDS011;12883;52.662;5.196;2023-08-30T05:25:02;11.05;;;11.05;;
24787;SDS011;12883;52.662;5.196;2023-08-30T05:27:27;10.50;;;10.50;;
24787;SDS011;12883;52.662;5.196;2023-08-30T05:29:53;10.05;;;10.05;;
24787;SDS011;12883;52.662;5.196;2023-08-30T05:32:20;10.18;;;10.18;;
24787;SDS011;12883;52.662;5.196;2023-08-30T05:34:46;9.95;;;9.95;;
24787;SDS011;12883;52.662;5.196;2023-08-30T05:37:11;11.07;;;11.07;;
24787;SDS011;12883;52.662;5.196;2023-08-30T05:39:37;11.05;;;11.05;;
24787;SDS011;12883;52.662;5.196;2023-08-30T05:42:02;11.88;;;11.88;;
24787;SDS011;12883;52.662;5.196;2023-08-30T05:44:28;11.40;;;11.40;;
24787;SDS011;12883;52.662;5.196;2023-08-30T05:46:53;10.63;;;10.63;;
24787;SDS011;12883;52.662;5.196;2023-08-30T05:49:18;9.48;;;9.48;;
24787;SDS011;12883;52.662;5.196;2023-08-30T05:51:44;3.65;;;3.65;;
24787;SDS011;12883;52.662;5.196;2023-08-30T05:54:09;1.10;;;1.10;;
24787;SDS011;12883;52.662;5.196;2023-08-30T05:56:35;1.00;;;1.00;;
24787;SDS011;12883;52.662;5.196;2023-08-30T05:59:00;0.88;;;0.88;;
24787;SDS011;12883;52.662;5.196;2023-08-30T06:01:25;10.45;;;10.45;;
24787;SDS011;12883;52.662;5.196;2023-08-30T06:03:51;10.55;;;10.55;;
24787;SDS011;12883;52.662;5.196;2023-08-30T06:06:16;11.63;;;11.57;;
24787;SDS011;12883;52.662;5.196;2023-08-30T06:08:42;10.50;;;10.50;;
24787;SDS011;12883;52.662;5.196;2023-08-30T06:11:07;11.15;;;11.15;;
24787;SDS011;12883;52.662;5.196;2023-08-30T06:13:33;11.13;;;11.13;;
24787;SDS011;12883;52.662;5.196;2023-08-30T06:15:58;11.15;;;11.15;;
24787;SDS011;12883;52.662;5.196;2023-08-30T06:18:24;9.77;;;9.77;;
24787;SDS011;12883;52.662;5.196;2023-08-30T06:20:49;10.63;;;10.63;;
24787;SDS011;12883;52.662;5.196;2023-08-30T06:23:14;11.35;;;11.35;;
24787;SDS011;12883;52.662;5.196;2023-08-30T06:25:43;12.43;;;12.43;;
24787;SDS011;12883;52.662;5.196;2023-08-30T06:28:08;11.85;;;11.85;;
24787;SDS011;12883;52.662;5.196;2023-08-30T06:30:34;12.48;;;12.48;;
24787;SDS011;12883;52.662;5.196;2023-08-30T06:32:59;12.73;;;12.73;;
24787;SDS011;12883;52.662;5.196;2023-08-30T06:35:25;12.45;;;12.45;;
24787;SDS011;12883;52.662;5.196;2023-08-30T06:37:50;11.90;;;11.90;;
24787;SDS011;12883;52.662;5.196;2023-08-30T06:40:17;10.15;;;10.15;;
24787;SDS011;12883;52.662;5.196;2023-08-30T06:42:42;10.55;;;10.55;;
24787;SDS011;12883;52.662;5.196;2023-08-30T06:45:08;10.48;;;10.48;;
24787;SDS011;12883;52.662;5.196;2023-08-30T06:47:33;8.20;;;8.20;;
24787;SDS011;12883;52.662;5.196;2023-08-30T06:50:00;2.50;;;2.50;;
24787;SDS011;12883;52.662;5.196;2023-08-30T06:52:26;2.03;;;2.03;;
24787;SDS011;12883;52.662;5.196;2023-08-30T06:54:52;1.27;;;1.27;;
24787;SDS011;12883;52.662;5.196;2023-08-30T06:57:17;1.10;;;1.10;;
24787;SDS011;12883;52.662;5.196;2023-08-30T06:59:42;8.35;;;8.35;;
24787;SDS011;12883;52.662;5.196;2023-08-30T07:02:08;7.82;;;7.82;;
24787;SDS011;12883;52.662;5.196;2023-08-30T07:04:33;8.35;;;8.35;;
24787;SDS011;12883;52.662;5.196;2023-08-30T07:06:59;9.15;;;9.15;;
24787;SDS011;12883;52.662;5.196;2023-08-30T07:09:24;9.95;;;9.95;;
24787;SDS011;12883;52.662;5.196;2023-08-30T07:11:54;9.50;;;9.50;;
24787;SDS011;12883;52.662;5.196;2023-08-30T07:14:20;10.90;;;10.90;;
24787;SDS011;12883;52.662;5.196;2023-08-30T07:16:45;11.50;;;11.50;;
24787;SDS011;12883;52.662;5.196;2023-08-30T07:19:18;11.85;;;11.85;;
24787;SDS011;12883;52.662;5.196;2023-08-30T07:21:43;11.75;;;11.75;;
24787;SDS011;12883;52.662;5.196;2023-08-30T07:24:08;10.80;;;10.80;;
24787;SDS011;12883;52.662;5.196;2023-08-30T07:26:34;11.05;;;11.05;;
24787;SDS011;12883;52.662;5.196;2023-08-30T07:29:00;11.32;;;11.32;;
24787;SDS011;12883;52.662;5.196;2023-08-30T07:31:25;11.65;;;11.65;;
24787;SDS011;12883;52.662;5.196;2023-08-30T07:33:51;10.50;;;10.50;;
24787;SDS011;12883;52.662;5.196;2023-08-30T07:36:16;10.98;;;10.98;;
24787;SDS011;12883;52.662;5.196;2023-08-30T07:38:42;10.32;;;10.32;;
24787;SDS011;12883;52.662;5.196;2023-08-30T07:41:07;9.27;;;9.27;;
24787;SDS011;12883;52.662;5.196;2023-08-30T07:43:32;8.82;;;8.82;;
24787;SDS011;12883;52.662;5.196;2023-08-30T07:45:58;7.50;;;7.50;;
24787;SDS011;12883;52.662;5.196;2023-08-30T07:48:24;6.95;;;6.95;;
24787;SDS011;12883;52.662;5.196;2023-08-30T07:50:49;2.95;;;2.95;;
24787;SDS011;12883;52.662;5.196;2023-08-30T07:53:15;1.45;;;1.45;;
24787;SDS011;12883;52.662;5.196;2023-08-30T07:55:40;1.30;;;1.30;;
24787;SDS011;12883;52.662;5.196;2023-08-30T07:58:06;1.40;;;1.40;;
24787;SDS011;12883;52.662;5.196;2023-08-30T08:00:33;6.20;;;6.20;;
24787;SDS011;12883;52.662;5.196;2023-08-30T08:02:59;6.57;;;6.57;;
24787;SDS011;12883;52.662;5.196;2023-08-30T08:05:25;6.38;;;6.38;;
24787;SDS011;12883;52.662;5.196;2023-08-30T08:07:51;5.57;;;5.57;;
24787;SDS011;12883;52.662;5.196;2023-08-30T08:10:17;5.97;;;5.97;;
24787;SDS011;12883;52.662;5.196;2023-08-30T08:12:43;7.20;;;7.20;;
24787;SDS011;12883;52.662;5.196;2023-08-30T08:15:08;6.32;;;6.32;;
24787;SDS011;12883;52.662;5.196;2023-08-30T08:17:34;6.97;;;6.97;;
24787;SDS011;12883;52.662;5.196;2023-08-30T08:19:59;6.20;;;6.20;;
24787;SDS011;12883;52.662;5.196;2023-08-30T08:22:25;6.60;;;6.60;;
24787;SDS011;12883;52.662;5.196;2023-08-30T08:24:50;6.40;;;6.40;;
24787;SDS011;12883;52.662;5.196;2023-08-30T08:27:17;6.38;;;6.38;;
24787;SDS011;12883;52.662;5.196;2023-08-30T08:29:42;6.97;;;6.97;;
24787;SDS011;12883;52.662;5.196;2023-08-30T08:32:07;6.95;;;6.95;;
24787;SDS011;12883;52.662;5.196;2023-08-30T08:34:33;6.82;;;6.82;;
24787;SDS011;12883;52.662;5.196;2023-08-30T08:36:58;6.85;;;6.85;;
24787;SDS011;12883;52.662;5.196;2023-08-30T08:39:24;7.20;;;7.20;;
24787;SDS011;12883;52.662;5.196;2023-08-30T08:41:49;7.40;;;7.40;;
24787;SDS011;12883;52.662;5.196;2023-08-30T08:44:18;7.47;;;7.47;;
24787;SDS011;12883;52.662;5.196;2023-08-30T08:46:44;7.63;;;7.63;;
24787;SDS011;12883;52.662;5.196;2023-08-30T08:49:13;5.40;;;5.40;;
24787;SDS011;12883;52.662;5.196;2023-08-30T08:51:40;2.80;;;2.80;;
24787;SDS011;12883;52.662;5.196;2023-08-30T08:54:06;1.42;;;1.42;;
24787;SDS011;12883;52.662;5.196;2023-08-30T08:56:34;1.30;;;1.30;;
24787;SDS011;12883;52.662;5.196;2023-08-30T08:59:00;1.40;;;1.40;;
24787;SDS011;12883;52.662;5.196;2023-08-30T09:01:26;5.00;;;5.00;;
24787;SDS011;12883;52.662;5.196;2023-08-30T09:03:52;4.93;;;4.93;;
24787;SDS011;12883;52.662;5.196;2023-08-30T09:06:18;3.95;;;3.95;;
24787;SDS011;12883;52.662;5.196;2023-08-30T09:08:43;3.75;;;3.75;;
24787;SDS011;12883;52.662;5.196;2023-08-30T09:11:08;4.07;;;4.07;;
24787;SDS011;12883;52.662;5.196;2023-08-30T09:13:34;3.28;;;3.28;;
24787;SDS011;12883;52.662;5.196;2023-08-30T09:15:59;3.65;;;3.65;;
24787;SDS011;12883;52.662;5.196;2023-08-30T09:18:25;3.70;;;3.70;;
24787;SDS011;12883;52.662;5.196;2023-08-30T09:21:04;4.13;;;4.13;;
24787;SDS011;12883;52.662;5.196;2023-08-30T09:23:36;4.55;;;4.55;;
24787;SDS011;12883;52.662;5.196;2023-08-30T09:26:02;4.38;;;4.38;;
24787;SDS011;12883;52.662;5.196;2023-08-30T09:28:29;5.15;;;5.15;;
24787;SDS011;12883;52.662;5.196;2023-08-30T09:30:56;5.65;;;5.65;;
24787;SDS011;12883;52.662;5.196;2023-08-30T09:33:29;5.68;;;5.68;;
24787;SDS011;12883;52.662;5.196;2023-08-30T09:35:58;5.65;;;5.65;;
24787;SDS011;12883;52.662;5.196;2023-08-30T09:38:24;6.35;;;6.35;;
24787;SDS011;12883;52.662;5.196;2023-08-30T09:40:50;5.07;;;5.07;;
24787;SDS011;12883;52.662;5.196;2023-08-30T09:43:19;5.45;;;5.45;;
24787;SDS011;12883;52.662;5.196;2023-08-30T09:45:49;5.13;;;5.13;;
24787;SDS011;12883;52.662;5.196;2023-08-30T09:48:16;4.82;;;4.82;;
24787;SDS011;12883;52.662;5.196;2023-08-30T09:50:46;1.88;;;1.88;;
24787;SDS011;12883;52.662;5.196;2023-08-30T09:53:17;1.27;;;1.27;;
24787;SDS011;12883;52.662;5.196;2023-08-30T09:55:45;1.02;;;1.02;;
24787;SDS011;12883;52.662;5.196;2023-08-30T09:58:11;0.98;;;0.98;;
24787;SDS011;12883;52.662;5.196;2023-08-30T10:00:37;5.10;;;5.10;;
24787;SDS011;12883;52.662;5.196;2023-08-30T10:03:02;4.90;;;4.90;;
24787;SDS011;12883;52.662;5.196;2023-08-30T10:05:29;4.40;;;4.40;;
24787;SDS011;12883;52.662;5.196;2023-08-30T10:07:56;4.40;;;4.40;;
24787;SDS011;12883;52.662;5.196;2023-08-30T10:10:22;4.85;;;4.85;;
24787;SDS011;12883;52.662;5.196;2023-08-30T10:12:49;4.38;;;4.38;;
24787;SDS011;12883;52.662;5.196;2023-08-30T10:15:14;4.15;;;4.15;;
24787;SDS011;12883;52.662;5.196;2023-08-30T10:17:41;4.53;;;4.53;;
24787;SDS011;12883;52.662;5.196;2023-08-30T10:20:10;5.05;;;5.05;;
24787;SDS011;12883;52.662;5.196;2023-08-30T10:22:37;4.95;;;4.95;;
24787;SDS011;12883;52.662;5.196;2023-08-30T10:25:15;4.70;;;4.70;;
24787;SDS011;12883;52.662;5.196;2023-08-30T10:27:46;5.03;;;5.03;;
24787;SDS011;12883;52.662;5.196;2023-08-30T10:30:13;4.95;;;4.95;;
24787;SDS011;12883;52.662;5.196;2023-08-30T10:32:40;4.63;;;4.63;;
24787;SDS011;12883;52.662;5.196;2023-08-30T10:35:06;5.60;;;5.60;;
24787;SDS011;12883;52.662;5.196;2023-08-30T10:37:36;5.30;;;5.30;;
24787;SDS011;12883;52.662;5.196;2023-08-30T10:40:01;5.15;;;5.15;;
24787;SDS011;12883;52.662;5.196;2023-08-30T10:42:31;4.65;;;4.65;;
24787;SDS011;12883;52.662;5.196;2023-08-30T10:44:58;4.93;;;4.93;;
24787;SDS011;12883;52.662;5.196;2023-08-30T10:47:28;4.50;;;4.50;;
24787;SDS011;12883;52.662;5.196;2023-08-30T10:50:00;3.67;;;3.67;;
24787;SDS011;12883;52.662;5.196;2023-08-30T10:52:29;1.52;;;1.52;;
24787;SDS011;12883;52.662;5.196;2023-08-30T10:55:04;1.10;;;1.10;;
24787;SDS011;12883;52.662;5.196;2023-08-30T10:57:33;0.80;;;0.80;;
24787;SDS011;12883;52.662;5.196;2023-08-30T11:02:48;5.13;;;5.13;;
24787;SDS011;12883;52.662;5.196;2023-08-30T11:05:18;5.88;;;5.88;;
24787;SDS011;12883;52.662;5.196;2023-08-30T11:07:46;6.20;;;6.20;;
24787;SDS011;12883;52.662;5.196;2023-08-30T11:10:14;6.47;;;6.47;;
24787;SDS011;12883;52.662;5.196;2023-08-30T11:12:40;6.05;;;6.05;;
24787;SDS011;12883;52.662;5.196;2023-08-30T11:15:06;7.47;;;7.47;;
24787;SDS011;12883;52.662;5.196;2023-08-30T11:17:32;6.50;;;6.50;;
24787;SDS011;12883;52.662;5.196;2023-08-30T11:19:58;6.35;;;6.35;;
24787;SDS011;12883;52.662;5.196;2023-08-30T11:22:31;5.22;;;5.22;;
24787;SDS011;12883;52.662;5.196;2023-08-30T11:24:57;5.85;;;5.85;;
24787;SDS011;12883;52.662;5.196;2023-08-30T11:27:23;5.93;;;5.93;;
24787;SDS011;12883;52.662;5.196;2023-08-30T11:29:49;5.20;;;5.20;;
24787;SDS011;12883;52.662;5.196;2023-08-30T11:32:14;3.75;;;3.75;;
24787;SDS011;12883;52.662;5.196;2023-08-30T11:34:41;4.25;;;4.25;;
24787;SDS011;12883;52.662;5.196;2023-08-30T11:37:07;4.55;;;4.55;;
24787;SDS011;12883;52.662;5.196;2023-08-30T11:39:32;4.93;;;4.93;;
24787;SDS011;12883;52.662;5.196;2023-08-30T11:41:59;3.72;;;3.72;;
24787;SDS011;12883;52.662;5.196;2023-08-30T11:44:24;3.75;;;3.75;;
24787;SDS011;12883;52.662;5.196;2023-08-30T11:46:59;2.97;;;2.97;;
24787;SDS011;12883;52.662;5.196;2023-08-30T11:49:25;2.58;;;2.58;;
24787;SDS011;12883;52.662;5.196;2023-08-30T11:51:52;1.80;;;1.80;;
24787;SDS011;12883;52.662;5.196;2023-08-30T11:54:21;0.82;;;0.82;;
24787;SDS011;12883;52.662;5.196;2023-08-30T11:56:47;0.50;;;0.50;;
24787;SDS011;12883;52.662;5.196;2023-08-30T11:59:20;0.45;;;0.45;;
24787;SDS011;12883;52.662;5.196;2023-08-30T12:01:49;3.38;;;3.38;;
24787;SDS011;12883;52.662;5.196;2023-08-30T12:04:17;3.22;;;3.22;;
24787;SDS011;12883;52.662;5.196;2023-08-30T12:06:44;3.97;;;3.97;;
24787;SDS011;12883;52.662;5.196;2023-08-30T12:09:15;3.25;;;3.25;;
24787;SDS011;12883;52.662;5.196;2023-08-30T12:11:41;2.95;;;2.95;;
24787;SDS011;12883;52.662;5.196;2023-08-30T12:14:06;2.88;;;2.88;;
24787;SDS011;12883;52.662;5.196;2023-08-30T12:16:32;2.72;;;2.72;;
24787;SDS011;12883;52.662;5.196;2023-08-30T12:19:06;3.15;;;3.15;;
24787;SDS011;12883;52.662;5.196;2023-08-30T12:21:38;3.10;;;3.10;;
24787;SDS011;12883;52.662;5.196;2023-08-30T12:24:05;3.35;;;3.35;;
24787;SDS011;12883;52.662;5.196;2023-08-30T12:26:33;3.30;;;3.30;;
24787;SDS011;12883;52.662;5.196;2023-08-30T12:28:58;2.58;;;2.58;;
24787;SDS011;12883;52.662;5.196;2023-08-30T12:31:24;2.67;;;2.67;;
24787;SDS011;12883;52.662;5.196;2023-08-30T12:33:49;2.25;;;2.25;;
24787;SDS011;12883;52.662;5.196;2023-08-30T12:36:14;2.38;;;2.38;;
24787;SDS011;12883;52.662;5.196;2023-08-30T12:38:40;2.78;;;2.78;;
24787;SDS011;12883;52.662;5.196;2023-08-30T12:41:05;2.47;;;2.47;;
24787;SDS011;12883;52.662;5.196;2023-08-30T12:43:30;2.47;;;2.47;;
24787;SDS011;12883;52.662;5.196;2023-08-30T12:45:56;1.85;;;1.85;;
24787;SDS011;12883;52.662;5.196;2023-08-30T12:48:21;1.77;;;1.77;;
24787;SDS011;12883;52.662;5.196;2023-08-30T12:50:47;0.52;;;0.52;;
24787;SDS011;12883;52.662;5.196;2023-08-30T12:53:13;0.70;;;0.70;;
24787;SDS011;12883;52.662;5.196;2023-08-30T12:55:41;1.65;;;1.65;;
24787;SDS011;12883;52.662;5.196;2023-08-30T12:58:07;0.55;;;0.55;;
24787;SDS011;12883;52.662;5.196;2023-08-30T13:00:33;2.58;;;2.58;;
24787;SDS011;12883;52.662;5.196;2023-08-30T13:02:59;2.22;;;2.22;;
24787;SDS011;12883;52.662;5.196;2023-08-30T13:05:25;2.00;;;2.00;;
24787;SDS011;12883;52.662;5.196;2023-08-30T13:07:50;2.17;;;2.17;;
24787;SDS011;12883;52.662;5.196;2023-08-30T13:10:16;1.92;;;1.92;;
24787;SDS011;12883;52.662;5.196;2023-08-30T13:12:42;1.95;;;1.95;;
24787;SDS011;12883;52.662;5.196;2023-08-30T13:15:07;2.10;;;2.10;;
24787;SDS011;12883;52.662;5.196;2023-08-30T13:17:33;1.70;;;1.70;;
24787;SDS011;12883;52.662;5.196;2023-08-30T13:19:58;1.70;;;1.70;;
24787;SDS011;12883;52.662;5.196;2023-08-30T13:22:24;1.85;;;1.85;;
24787;SDS011;12883;52.662;5.196;2023-08-30T13:24:51;2.10;;;2.10;;
24787;SDS011;12883;52.662;5.196;2023-08-30T13:27:17;1.42;;;1.42;;
24787;SDS011;12883;52.662;5.196;2023-08-30T13:29:43;1.60;;;1.60;;
24787;SDS011;12883;52.662;5.196;2023-08-30T13:32:08;1.55;;;1.55;;
24787;SDS011;12883;52.662;5.196;2023-08-30T13:34:33;1.20;;;1.20;;
24787;SDS011;12883;52.662;5.196;2023-08-30T13:36:58;1.40;;;1.40;;
24787;SDS011;12883;52.662;5.196;2023-08-30T13:39:24;1.38;;;1.38;;
24787;SDS011;12883;52.662;5.196;2023-08-30T13:41:49;1.55;;;1.55;;
24787;SDS011;12883;52.662;5.196;2023-08-30T13:44:15;1.90;;;1.90;;
24787;SDS011;12883;52.662;5.196;2023-08-30T13:46:40;1.48;;;1.48;;
24787;SDS011;12883;52.662;5.196;2023-08-30T13:49:06;1.40;;;1.40;;
24787;SDS011;12883;52.662;5.196;2023-08-30T13:51:31;0.50;;;0.50;;
24787;SDS011;12883;52.662;5.196;2023-08-30T13:53:57;0.40;;;0.40;;
24787;SDS011;12883;52.662;5.196;2023-08-30T13:56:23;0.65;;;0.65;;
24787;SDS011;12883;52.662;5.196;2023-08-30T13:58:49;0.70;;;0.70;;
24787;SDS011;12883;52.662;5.196;2023-08-30T14:01:15;1.95;;;1.95;;
24787;SDS011;12883;52.662;5.196;2023-08-30T14:03:40;2.40;;;2.40;;
24787;SDS011;12883;52.662;5.196;2023-08-30T14:06:05;2.50;;;2.50;;
24787;SDS011;12883;52.662;5.196;2023-08-30T14:08:31;2.72;;;2.72;;
24787;SDS011;12883;52.662;5.196;2023-08-30T14:10:57;2.38;;;2.38;;
24787;SDS011;12883;52.662;5.196;2023-08-30T14:13:23;2.45;;;2.45;;
24787;SDS011;12883;52.662;5.196;2023-08-30T14:15:48;1.98;;;1.98;;
24787;SDS011;12883;52.662;5.196;2023-08-30T14:18:14;2.20;;;2.20;;
24787;SDS011;12883;52.662;5.196;2023-08-30T14:20:40;1.88;;;1.88;;
24787;SDS011;12883;52.662;5.196;2023-08-30T14:23:06;2.63;;;2.63;;
24787;SDS011;12883;52.662;5.196;2023-08-30T14:25:32;2.20;;;2.20;;
24787;SDS011;12883;52.662;5.196;2023-08-30T14:27:57;1.75;;;1.75;;
24787;SDS011;12883;52.662;5.196;2023-08-30T14:30:24;2.10;;;2.10;;
24787;SDS011;12883;52.662;5.196;2023-08-30T14:32:50;2.83;;;2.83;;
24787;SDS011;12883;52.662;5.196;2023-08-30T14:35:16;1.60;;;1.60;;
24787;SDS011;12883;52.662;5.196;2023-08-30T14:37:41;1.77;;;1.77;;
24787;SDS011;12883;52.662;5.196;2023-08-30T14:40:07;1.80;;;1.80;;
24787;SDS011;12883;52.662;5.196;2023-08-30T14:42:32;1.92;;;1.92;;
24787;SDS011;12883;52.662;5.196;2023-08-30T14:44:58;2.00;;;2.00;;
24787;SDS011;12883;52.662;5.196;2023-08-30T14:47:24;1.83;;;1.83;;
24787;SDS011;12883;52.662;5.196;2023-08-30T14:49:49;0.30;;;0.30;;